createdAt,value
2023-03-29T00:00:11.082Z,2.33
2023-03-29T00:02:39.068Z,2.60
2023-03-29T00:05:11.863Z,3.13
2023-03-29T00:07:38.945Z,2.78
2023-03-29T00:10:06.487Z,2.92
2023-03-29T00:12:36.786Z,2.10
2023-03-29T00:15:08.539Z,2.10
2023-03-29T00:17:35.716Z,2.20
2023-03-29T00:20:05.462Z,2.45
2023-03-29T00:22:33.259Z,1.90
2023-03-29T00:25:04.122Z,2.08
2023-03-29T00:27:31.658Z,1.70
2023-03-29T00:30:01.516Z,2.30
2023-03-29T00:32:29.074Z,2.38
2023-03-29T00:35:01.055Z,2.33
2023-03-29T00:37:30.004Z,1.65
2023-03-29T00:39:57.756Z,2.22
2023-03-29T00:42:26.079Z,1.83
2023-03-29T00:45:25.223Z,1.80
2023-03-29T00:48:00.138Z,1.67
2023-03-29T00:50:41.689Z,1.52
2023-03-29T00:53:38.543Z,1.30
2023-03-29T00:56:19.886Z,2.05
2023-03-29T00:58:55.051Z,1.20
2023-03-29T01:02:02.291Z,1.30
2023-03-29T01:04:43.931Z,1.80
2023-03-29T01:07:23.304Z,1.52
2023-03-29T01:10:01.839Z,2.17
2023-03-29T01:12:36.039Z,2.05
2023-03-29T01:15:09.163Z,2.00
2023-03-29T01:17:37.333Z,1.77
2023-03-29T01:23:00.665Z,2.28
2023-03-29T01:26:01.709Z,1.70
2023-03-29T01:28:38.718Z,1.98
2023-03-29T01:31:11.934Z,2.00
2023-03-29T01:33:44.924Z,2.05
2023-03-29T01:36:27.508Z,2.30
2023-03-29T01:38:57.854Z,2.08
2023-03-29T01:41:39.696Z,2.17
2023-03-29T01:44:15.340Z,1.52
2023-03-29T01:46:47.382Z,1.60
2023-03-29T01:49:20.871Z,1.90
2023-03-29T01:51:58.098Z,2.28
2023-03-29T01:54:48.569Z,1.63
2023-03-29T01:57:19.921Z,2.78
2023-03-29T01:59:49.220Z,1.75
2023-03-29T02:02:18.400Z,1.60
2023-03-29T02:04:52.323Z,1.80
2023-03-29T02:07:25.288Z,2.35
2023-03-29T02:09:57.044Z,1.33
2023-03-29T02:12:24.209Z,1.95
2023-03-29T02:14:51.328Z,2.22
2023-03-29T02:17:18.410Z,1.83
2023-03-29T02:19:54.384Z,2.38
2023-03-29T02:22:37.573Z,2.13
2023-03-29T02:25:08.481Z,2.03
2023-03-29T02:27:38.093Z,2.30
2023-03-29T02:30:08.311Z,2.63
2023-03-29T02:32:52.453Z,2.20
2023-03-29T02:35:53.110Z,2.45
2023-03-29T02:38:21.849Z,1.80
2023-03-29T02:40:49.167Z,3.05
2023-03-29T02:43:17.978Z,2.28
2023-03-29T02:45:46.424Z,2.55
2023-03-29T02:48:18.271Z,2.40
2023-03-29T02:50:50.975Z,2.35
2023-03-29T02:53:24.195Z,3.60
2023-03-29T02:55:53.497Z,2.40
2023-03-29T02:58:26.473Z,2.20
2023-03-29T03:00:53.862Z,1.70
2023-03-29T03:03:23.873Z,1.90
2023-03-29T03:05:54.489Z,1.88
2023-03-29T03:08:21.755Z,2.22
2023-03-29T03:10:49.197Z,1.95
2023-03-29T03:13:16.482Z,2.25
2023-03-29T03:15:49.154Z,2.33
2023-03-29T03:18:17.056Z,2.03
2023-03-29T03:20:46.601Z,2.60
2023-03-29T03:23:13.699Z,2.70
2023-03-29T03:25:41.111Z,2.83
2023-03-29T03:28:08.320Z,2.35
2023-03-29T03:30:41.622Z,2.60
2023-03-29T03:33:19.251Z,3.30
2023-03-29T03:36:18.314Z,1.92
2023-03-29T03:38:49.623Z,2.05
2023-03-29T03:41:16.916Z,1.50
2023-03-29T03:43:48.679Z,1.77
2023-03-29T03:46:17.216Z,2.53
2023-03-29T03:48:50.419Z,2.40
2023-03-29T03:51:22.307Z,2.22
2023-03-29T03:53:50.951Z,2.60
2023-03-29T03:56:38.388Z,2.17
2023-03-29T03:59:16.511Z,2.17
2023-03-29T04:01:56.322Z,2.33
2023-03-29T04:04:24.953Z,2.08
2023-03-29T04:07:04.961Z,2.17
2023-03-29T04:09:59.027Z,2.53
2023-03-29T04:12:36.498Z,2.40
2023-03-29T04:15:04.341Z,2.28
2023-03-29T04:17:32.413Z,2.60
2023-03-29T04:20:10.271Z,2.35
2023-03-29T04:22:37.905Z,2.53
2023-03-29T04:25:06.716Z,1.90
2023-03-29T04:27:46.186Z,1.83
2023-03-29T04:30:41.758Z,2.53
2023-03-29T04:33:19.984Z,2.50
2023-03-29T04:35:53.673Z,2.03
2023-03-29T04:38:23.373Z,3.75
2023-03-29T04:40:52.174Z,4.75
2023-03-29T04:43:26.221Z,2.38
2023-03-29T04:46:03.453Z,3.55
2023-03-29T04:48:49.185Z,2.35
2023-03-29T04:51:17.866Z,2.38
2023-03-29T04:53:45.943Z,2.97
2023-03-29T04:56:13.373Z,2.03
2023-03-29T04:58:59.249Z,3.38
2023-03-29T05:01:27.440Z,2.80
2023-03-29T05:03:58.213Z,3.80
2023-03-29T05:06:34.065Z,2.83
2023-03-29T05:09:01.664Z,3.05
2023-03-29T05:11:41.861Z,2.30
2023-03-29T05:14:09.449Z,2.70
2023-03-29T05:16:38.116Z,3.22
2023-03-29T05:19:06.490Z,2.63
2023-03-29T05:21:41.368Z,3.10
2023-03-29T05:24:13.173Z,2.65
2023-03-29T05:26:56.586Z,2.80
2023-03-29T05:29:25.302Z,2.67
2023-03-29T05:32:03.385Z,2.75
2023-03-29T05:34:35.012Z,2.42
2023-03-29T05:37:03.278Z,2.38
2023-03-29T05:39:40.049Z,2.63
2023-03-29T05:42:07.336Z,3.13
2023-03-29T05:44:47.356Z,3.45
2023-03-29T05:47:20.686Z,2.80
2023-03-29T05:49:51.469Z,2.70
2023-03-29T05:52:26.435Z,4.78
2023-03-29T05:54:55.380Z,3.25
2023-03-29T05:57:33.110Z,3.53
2023-03-29T06:00:20.482Z,3.25
2023-03-29T06:02:56.336Z,2.92
2023-03-29T06:05:27.700Z,2.55
2023-03-29T06:07:59.162Z,3.17
2023-03-29T06:10:50.379Z,2.60
2023-03-29T06:13:38.969Z,2.88
2023-03-29T06:16:10.640Z,2.53
2023-03-29T06:18:41.411Z,3.28
2023-03-29T06:21:09.585Z,2.45
2023-03-29T06:23:52.317Z,2.40
2023-03-29T06:26:21.107Z,2.63
2023-03-29T06:28:52.215Z,2.72
2023-03-29T06:31:21.307Z,2.50
2023-03-29T06:33:51.676Z,2.28
2023-03-29T06:36:34.254Z,2.30
2023-03-29T06:39:07.526Z,2.70
2023-03-29T06:41:58.303Z,3.13
2023-03-29T06:44:45.667Z,2.45
2023-03-29T06:47:24.395Z,2.60
2023-03-29T06:49:51.656Z,2.58
2023-03-29T06:52:48.916Z,2.92
2023-03-29T06:55:16.657Z,2.72
2023-03-29T06:57:49.484Z,2.40
2023-03-29T07:00:39.931Z,2.70
2023-03-29T07:03:20.154Z,2.47
2023-03-29T07:05:55.077Z,2.05
2023-03-29T07:08:31.819Z,3.22
2023-03-29T07:11:08.683Z,2.17
2023-03-29T07:13:49.432Z,2.83
2023-03-29T07:16:24.704Z,2.42
2023-03-29T07:19:01.429Z,2.08
2023-03-29T07:21:54.872Z,2.97
2023-03-29T07:24:26.582Z,2.25
2023-03-29T07:27:04.061Z,2.67
2023-03-29T07:29:34.915Z,2.60
2023-03-29T07:32:03.146Z,2.60
2023-03-29T07:34:51.333Z,2.75
2023-03-29T07:37:37.473Z,3.03
2023-03-29T07:40:12.822Z,2.70
2023-03-29T07:43:01.432Z,2.90
2023-03-29T07:45:32.587Z,3.40
2023-03-29T07:48:05.787Z,2.67
2023-03-29T07:50:48.875Z,3.30
2023-03-29T07:53:19.146Z,2.92
2023-03-29T07:55:50.194Z,2.78
2023-03-29T07:58:40.223Z,2.70
2023-03-29T08:01:20.212Z,2.88
2023-03-29T08:04:02.548Z,2.38
2023-03-29T08:07:00.408Z,3.22
2023-03-29T08:09:43.606Z,2.28
2023-03-29T08:12:11.414Z,1.90
2023-03-29T08:14:51.078Z,2.33
2023-03-29T08:17:28.930Z,1.90
2023-03-29T08:22:27.977Z,2.10
2023-03-29T08:25:15.847Z,2.53
2023-03-29T08:27:53.517Z,2.35
2023-03-29T08:30:33.405Z,2.53
2023-03-29T08:33:02.319Z,2.20
2023-03-29T08:35:29.999Z,2.35
2023-03-29T08:38:22.767Z,1.77
2023-03-29T08:40:54.837Z,2.17
2023-03-29T08:43:31.993Z,2.15
2023-03-29T08:46:35.351Z,2.70
2023-03-29T08:51:59.853Z,1.92
2023-03-29T08:54:36.808Z,2.58
2023-03-29T08:57:24.213Z,2.08
2023-03-29T09:00:01.304Z,2.67
2023-03-29T09:02:34.159Z,2.13
2023-03-29T09:05:23.390Z,2.45
2023-03-29T09:08:07.877Z,2.38
2023-03-29T09:10:50.597Z,2.60
2023-03-29T09:13:39.046Z,2.72
2023-03-29T09:16:25.525Z,2.47
2023-03-29T09:19:30.748Z,2.72
2023-03-29T09:22:10.525Z,3.00
2023-03-29T09:25:03.403Z,2.70
2023-03-29T09:27:44.408Z,2.58
2023-03-29T09:30:35.636Z,3.65
2023-03-29T09:33:31.704Z,2.33
2023-03-29T09:36:20.024Z,2.67
2023-03-29T09:38:51.260Z,2.63
2023-03-29T09:41:45.163Z,3.05
2023-03-29T09:44:33.281Z,2.47
2023-03-29T09:47:25.966Z,2.28
2023-03-29T09:50:01.852Z,3.05
2023-03-29T09:52:29.239Z,3.72
2023-03-29T09:55:06.680Z,3.28
2023-03-29T09:57:52.560Z,2.60
2023-03-29T10:00:20.721Z,2.80
2023-03-29T10:03:03.545Z,3.22
2023-03-29T10:05:47.892Z,3.10
2023-03-29T10:08:27.044Z,2.40
2023-03-29T10:10:58.568Z,3.17
2023-03-29T10:13:31.737Z,2.70
2023-03-29T10:16:07.492Z,2.80
2023-03-29T10:18:42.011Z,2.50
2023-03-29T10:21:12.873Z,3.60
2023-03-29T10:23:40.022Z,2.83
2023-03-29T10:26:15.708Z,2.83
2023-03-29T10:28:42.997Z,3.42
2023-03-29T10:31:18.928Z,2.75
2023-03-29T10:33:52.544Z,3.22
2023-03-29T10:36:19.926Z,2.65
2023-03-29T10:38:47.671Z,2.70
2023-03-29T10:41:23.114Z,2.97
2023-03-29T10:43:51.195Z,3.35
2023-03-29T10:46:27.429Z,3.45
2023-03-29T10:49:06.053Z,2.65
2023-03-29T10:51:34.541Z,3.10
2023-03-29T10:57:04.429Z,3.17
2023-03-29T10:59:52.418Z,2.95
2023-03-29T11:02:35.996Z,2.63
2023-03-29T11:05:48.301Z,2.50
2023-03-29T11:08:43.653Z,3.35
2023-03-29T11:11:24.491Z,2.85
2023-03-29T11:14:05.730Z,2.88
2023-03-29T11:17:02.327Z,3.40
2023-03-29T11:19:53.412Z,2.63
2023-03-29T11:23:07.272Z,2.80
2023-03-29T11:25:37.273Z,3.08
2023-03-29T11:28:07.691Z,2.20
2023-03-29T11:30:44.709Z,2.28
2023-03-29T11:33:47.737Z,2.15
2023-03-29T11:36:46.673Z,2.42
2023-03-29T11:39:54.302Z,2.42
2023-03-29T11:42:29.426Z,2.47
2023-03-29T11:45:00.054Z,2.95
2023-03-29T11:47:31.917Z,3.03
2023-03-29T11:50:22.102Z,2.83
2023-03-29T11:52:56.598Z,3.00
2023-03-29T11:55:37.474Z,2.95
2023-03-29T11:58:16.818Z,3.10
2023-03-29T12:01:10.943Z,3.33
2023-03-29T12:04:01.695Z,2.92
2023-03-29T12:06:50.824Z,3.80
2023-03-29T12:09:40.320Z,3.67
2023-03-29T12:12:21.401Z,3.47
2023-03-29T12:15:20.067Z,3.58
2023-03-29T12:18:10.085Z,3.28
2023-03-29T12:20:40.424Z,3.55
2023-03-29T12:23:14.692Z,3.35
2023-03-29T12:25:47.576Z,3.80
2023-03-29T12:28:33.333Z,3.55
2023-03-29T12:31:09.558Z,4.05
2023-03-29T12:33:57.833Z,3.80
2023-03-29T12:37:14.402Z,3.42
2023-03-29T12:40:10.147Z,3.03
2023-03-29T12:43:15.902Z,3.30
2023-03-29T12:46:09.169Z,3.45
2023-03-29T12:48:41.902Z,3.70
2023-03-29T12:51:42.760Z,3.47
2023-03-29T12:54:21.690Z,4.40
2023-03-29T12:56:52.096Z,3.70
2023-03-29T13:00:08.724Z,4.18
2023-03-29T13:02:37.837Z,4.05
2023-03-29T13:05:31.655Z,4.95
2023-03-29T13:08:12.904Z,4.43
2023-03-29T13:10:44.240Z,4.43
2023-03-29T13:13:18.944Z,4.18
2023-03-29T13:18:39.000Z,4.82
2023-03-29T13:21:37.962Z,4.80
2023-03-29T13:24:23.677Z,4.43
2023-03-29T13:26:59.660Z,4.45
2023-03-29T13:30:34.220Z,4.60
2023-03-29T13:33:13.353Z,4.22
2023-03-29T13:36:33.111Z,4.93
2023-03-29T13:39:08.085Z,4.65
2023-03-29T13:41:38.254Z,4.45
2023-03-29T13:44:25.718Z,4.18
2023-03-29T13:47:17.648Z,4.82
2023-03-29T13:50:01.184Z,5.43
2023-03-29T13:52:55.408Z,4.90
2023-03-29T13:56:01.946Z,4.40
2023-03-29T13:58:51.335Z,5.20
2023-03-29T14:01:45.505Z,5.53
2023-03-29T14:06:56.297Z,4.65
2023-03-29T14:09:46.000Z,4.95
2023-03-29T14:12:22.573Z,6.30
2023-03-29T14:14:59.355Z,4.90
2023-03-29T14:17:35.026Z,4.65
2023-03-29T14:20:09.701Z,4.88
2023-03-29T14:22:50.866Z,5.53
2023-03-29T14:25:30.053Z,5.65
2023-03-29T14:28:00.281Z,6.60
2023-03-29T14:30:36.764Z,5.93
2023-03-29T14:33:11.902Z,4.88
2023-03-29T14:35:44.125Z,5.45
2023-03-29T14:38:17.634Z,4.57
2023-03-29T14:40:47.968Z,5.50
2023-03-29T14:43:24.134Z,4.35
2023-03-29T14:45:57.113Z,5.10
2023-03-29T14:48:35.946Z,5.40
2023-03-29T14:51:13.994Z,5.50
2023-03-29T14:53:50.397Z,5.05
2023-03-29T14:56:26.641Z,4.88
2023-03-29T14:58:55.332Z,4.40
2023-03-29T15:01:46.153Z,5.57
2023-03-29T15:04:13.936Z,4.85
2023-03-29T15:06:52.927Z,4.72
2023-03-29T15:09:28.318Z,5.05
2023-03-29T15:12:00.172Z,4.47
2023-03-29T15:14:38.236Z,4.75
2023-03-29T15:17:51.938Z,4.30
2023-03-29T15:20:27.108Z,4.82
2023-03-29T15:23:40.793Z,4.60
2023-03-29T15:26:21.963Z,5.20
2023-03-29T15:28:55.842Z,6.00
2023-03-29T15:31:32.992Z,5.15
2023-03-29T15:34:27.555Z,5.50
2023-03-29T15:36:57.842Z,5.30
2023-03-29T15:39:27.704Z,5.03
2023-03-29T15:41:56.929Z,4.22
2023-03-29T15:44:29.032Z,3.83
2023-03-29T15:46:58.174Z,3.63
2023-03-29T15:49:26.320Z,4.65
2023-03-29T15:51:54.369Z,5.18
2023-03-29T15:56:53.486Z,5.22
2023-03-29T15:59:21.653Z,5.70
2023-03-29T16:01:49.232Z,5.97
2023-03-29T16:04:21.923Z,5.10
2023-03-29T16:06:53.451Z,5.05
2023-03-29T16:09:22.376Z,5.20
2023-03-29T16:11:50.126Z,5.47
2023-03-29T16:14:30.537Z,4.60
2023-03-29T16:17:06.276Z,5.30
2023-03-29T16:19:36.213Z,5.00
2023-03-29T16:22:07.374Z,4.85
2023-03-29T16:24:36.108Z,5.78
2023-03-29T16:27:03.812Z,5.82
2023-03-29T16:29:31.682Z,4.68
2023-03-29T16:34:26.836Z,4.72
2023-03-29T16:36:54.159Z,5.30
2023-03-29T16:39:21.529Z,5.07
2023-03-29T16:41:50.123Z,4.13
2023-03-29T16:44:23.764Z,5.60
2023-03-29T16:46:54.200Z,3.92
2023-03-29T16:49:21.747Z,4.68
2023-03-29T16:51:48.925Z,4.85
2023-03-29T16:54:19.733Z,4.93
2023-03-29T16:56:47.169Z,5.07
2023-03-29T16:59:15.370Z,4.78
2023-03-29T17:01:42.801Z,4.47
2023-03-29T17:04:12.533Z,4.65
2023-03-29T17:06:39.886Z,4.85
2023-03-29T17:09:07.381Z,5.18
2023-03-29T17:11:34.849Z,5.68
2023-03-29T17:14:02.374Z,6.18
2023-03-29T17:16:29.608Z,5.65
2023-03-29T17:19:00.496Z,5.15
2023-03-29T17:21:30.822Z,5.68
2023-03-29T17:23:57.925Z,5.88
2023-03-29T17:26:25.094Z,4.78
2023-03-29T17:28:52.191Z,4.95
2023-03-29T17:31:19.566Z,5.35
2023-03-29T17:33:47.556Z,6.65
2023-03-29T17:38:42.964Z,7.00
2023-03-29T17:41:11.117Z,6.30
2023-03-29T17:43:38.414Z,7.03
2023-03-29T17:46:06.213Z,6.63
2023-03-29T17:48:34.456Z,6.90
2023-03-29T17:53:28.528Z,7.15
2023-03-29T17:55:55.713Z,6.35
2023-03-29T17:58:22.840Z,7.70
2023-03-29T18:00:50.074Z,7.35
2023-03-29T18:03:17.264Z,7.28
2023-03-29T18:05:44.405Z,8.35
2023-03-29T18:08:15.058Z,7.28
2023-03-29T18:10:43.163Z,6.53
2023-03-29T18:13:13.916Z,8.00
2023-03-29T18:15:42.215Z,6.80
2023-03-29T18:18:09.469Z,7.10
2023-03-29T18:20:36.997Z,8.68
2023-03-29T18:23:04.255Z,8.35
2023-03-29T18:25:31.323Z,6.55
2023-03-29T18:27:58.474Z,7.97
2023-03-29T18:30:25.886Z,7.72
2023-03-29T18:32:53.601Z,7.78
2023-03-29T18:35:20.957Z,8.88
2023-03-29T18:37:48.194Z,7.25
2023-03-29T18:40:16.704Z,7.25
2023-03-29T18:42:43.876Z,7.45
2023-03-29T18:45:11.709Z,7.97
2023-03-29T18:47:41.613Z,8.63
2023-03-29T18:50:09.504Z,7.25
2023-03-29T18:52:36.763Z,7.13
2023-03-29T18:55:05.269Z,7.95
2023-03-29T18:57:32.628Z,8.07
2023-03-29T19:00:00.120Z,7.28
2023-03-29T19:02:27.305Z,7.68
2023-03-29T19:04:57.441Z,7.70
2023-03-29T19:07:24.509Z,7.13
2023-03-29T19:09:51.638Z,6.47
2023-03-29T19:12:18.777Z,6.28
2023-03-29T19:14:46.691Z,6.97
2023-03-29T19:19:40.863Z,5.75
2023-03-29T19:22:08.411Z,6.22
2023-03-29T19:24:35.806Z,6.68
2023-03-29T19:27:03.114Z,6.13
2023-03-29T19:29:30.503Z,5.82
2023-03-29T19:31:57.763Z,6.68
2023-03-29T19:34:24.941Z,6.78
2023-03-29T19:36:53.941Z,6.40
2023-03-29T19:39:21.952Z,7.13
2023-03-29T19:41:49.595Z,6.65
2023-03-29T19:44:16.683Z,6.47
2023-03-29T19:46:44.818Z,7.63
2023-03-29T19:49:13.705Z,6.10
2023-03-29T19:51:41.989Z,6.10
2023-03-29T19:54:11.385Z,6.65
2023-03-29T19:56:38.714Z,5.63
2023-03-29T19:59:06.404Z,6.38
2023-03-29T20:01:33.883Z,5.22
2023-03-29T20:04:02.638Z,6.25
2023-03-29T20:06:29.996Z,5.85
2023-03-29T20:08:58.644Z,5.75
2023-03-29T20:11:26.062Z,5.65
2023-03-29T20:13:53.340Z,5.07
2023-03-29T20:16:24.227Z,5.88
2023-03-29T20:18:54.021Z,5.90
2023-03-29T20:21:21.241Z,5.90
2023-03-29T20:23:48.338Z,5.35
2023-03-29T20:26:15.519Z,6.38
2023-03-29T20:28:42.741Z,5.90
2023-03-29T20:31:13.131Z,5.72
2023-03-29T20:33:41.733Z,5.43
2023-03-29T20:36:09.094Z,6.07
2023-03-29T20:38:36.738Z,5.97
2023-03-29T20:41:05.448Z,5.32
2023-03-29T20:43:37.521Z,5.53
2023-03-29T20:46:14.300Z,5.15
2023-03-29T20:48:53.436Z,5.75
2023-03-29T20:51:22.558Z,5.28
2023-03-29T20:53:50.725Z,5.35
2023-03-29T20:56:19.058Z,5.53
2023-03-29T20:58:46.935Z,5.50
2023-03-29T21:01:14.415Z,5.00
2023-03-29T21:03:43.459Z,5.88
2023-03-29T21:06:14.000Z,4.85
2023-03-29T21:08:42.649Z,5.78
2023-03-29T21:11:13.072Z,6.25
2023-03-29T21:13:41.571Z,5.28
2023-03-29T21:16:13.004Z,6.15
2023-03-29T21:18:40.519Z,5.82
2023-03-29T21:21:09.749Z,6.45
2023-03-29T21:23:38.979Z,6.40
2023-03-29T21:26:07.839Z,6.53
2023-03-29T21:28:35.477Z,6.85
2023-03-29T21:31:06.765Z,5.40
2023-03-29T21:33:35.047Z,6.97
2023-03-29T21:36:02.585Z,6.03
2023-03-29T21:38:29.771Z,5.88
2023-03-29T21:40:58.161Z,6.25
2023-03-29T21:43:25.450Z,6.22
2023-03-29T21:45:52.592Z,6.18
2023-03-29T21:48:19.817Z,5.18
2023-03-29T21:50:53.317Z,6.00
2023-03-29T21:53:20.425Z,6.72
2023-03-29T21:55:48.983Z,5.85
2023-03-29T21:58:16.300Z,6.65
2023-03-29T22:00:43.997Z,6.72
2023-03-29T22:03:11.479Z,6.05
2023-03-29T22:05:39.143Z,5.88
2023-03-29T22:08:10.340Z,6.28
2023-03-29T22:10:41.232Z,6.28
2023-03-29T22:13:09.278Z,5.55
2023-03-29T22:15:36.425Z,6.43
2023-03-29T22:18:03.932Z,6.43
2023-03-29T22:20:35.801Z,5.90
2023-03-29T22:23:03.431Z,5.20
2023-03-29T22:25:30.517Z,5.88
2023-03-29T22:27:57.663Z,5.20
2023-03-29T22:30:24.759Z,6.20
2023-03-29T22:32:52.121Z,5.75
2023-03-29T22:35:19.413Z,5.32
2023-03-29T22:37:46.535Z,6.03
2023-03-29T22:40:13.941Z,5.63
2023-03-29T22:42:41.277Z,5.88
2023-03-29T22:45:09.101Z,5.78
2023-03-29T22:50:13.416Z,5.35
2023-03-29T22:52:40.611Z,5.63
2023-03-29T22:55:08.451Z,4.32
2023-03-29T23:00:09.136Z,4.88
2023-03-29T23:02:37.214Z,4.97
2023-03-29T23:05:04.688Z,5.10
2023-03-29T23:07:36.264Z,5.53
2023-03-29T23:10:06.538Z,5.45
2023-03-29T23:12:36.175Z,5.55
2023-03-29T23:15:08.037Z,4.70
2023-03-29T23:17:35.704Z,5.03
2023-03-29T23:20:06.084Z,5.47
2023-03-29T23:22:35.859Z,4.53
2023-03-29T23:25:05.776Z,5.28
2023-03-29T23:27:33.181Z,5.10
2023-03-29T23:30:03.716Z,4.78
2023-03-29T23:32:30.861Z,5.03
2023-03-29T23:34:58.150Z,5.00
2023-03-29T23:37:28.715Z,4.82
2023-03-29T23:39:56.022Z,5.50
2023-03-29T23:42:23.212Z,5.50
2023-03-29T23:44:50.721Z,4.38
2023-03-29T23:47:17.839Z,4.85
2023-03-29T23:49:45.359Z,4.70
2023-03-29T23:52:12.544Z,4.63
2023-03-29T23:54:39.636Z,4.03
2023-03-29T23:57:06.836Z,5.10
2023-03-29T23:59:37.788Z,4.30
